createdAt,value
2023-03-04T00:02:17.580Z,10.32
2023-03-04T00:04:47.084Z,11.13
2023-03-04T00:07:16.904Z,12.15
2023-03-04T00:09:45.092Z,11.60
2023-03-04T00:12:12.339Z,11.75
2023-03-04T00:14:38.867Z,11.20
2023-03-04T00:17:05.570Z,10.00
2023-03-04T00:19:32.057Z,11.63
2023-03-04T00:21:58.650Z,12.40
2023-03-04T00:24:25.471Z,11.10
2023-03-04T00:26:51.979Z,10.90
2023-03-04T00:29:18.690Z,11.07
2023-03-04T00:31:45.203Z,11.90
2023-03-04T00:34:11.964Z,11.38
2023-03-04T00:36:38.554Z,10.35
2023-03-04T00:39:05.680Z,12.80
2023-03-04T00:41:32.620Z,11.15
2023-03-04T00:43:59.366Z,11.93
2023-03-04T00:46:25.876Z,13.07
2023-03-04T00:48:52.614Z,11.55
2023-03-04T00:51:19.013Z,11.27
2023-03-04T00:53:45.528Z,11.68
2023-03-04T00:56:11.932Z,11.20
2023-03-04T00:58:39.587Z,11.57
2023-03-04T01:01:07.329Z,11.82
2023-03-04T01:03:34.605Z,11.60
2023-03-04T01:06:01.276Z,11.93
2023-03-04T01:08:28.479Z,12.85
2023-03-04T01:10:54.993Z,12.95
2023-03-04T01:13:21.500Z,11.50
2023-03-04T01:15:48.269Z,12.50
2023-03-04T01:18:14.766Z,13.00
2023-03-04T01:20:41.191Z,11.90
2023-03-04T01:23:07.860Z,11.57
2023-03-04T01:25:34.515Z,11.15
2023-03-04T01:28:01.110Z,11.65
2023-03-04T01:30:27.561Z,12.45
2023-03-04T01:32:54.100Z,12.30
2023-03-04T01:35:20.540Z,12.38
2023-03-04T01:37:47.004Z,11.82
2023-03-04T01:40:14.138Z,11.98
2023-03-04T01:42:40.877Z,12.38
2023-03-04T01:45:11.144Z,11.45
2023-03-04T01:47:37.634Z,11.20
2023-03-04T01:50:14.153Z,11.70
2023-03-04T01:52:43.414Z,11.38
2023-03-04T01:55:21.358Z,11.73
2023-03-04T01:57:50.065Z,11.52
2023-03-04T02:00:32.846Z,12.10
2023-03-04T02:03:02.737Z,12.38
2023-03-04T02:05:29.956Z,12.63
2023-03-04T02:07:58.747Z,11.60
2023-03-04T02:10:25.711Z,12.48
2023-03-04T02:12:52.945Z,12.05
2023-03-04T02:15:19.580Z,11.00
2023-03-04T02:17:46.311Z,10.98
2023-03-04T02:20:37.477Z,11.73
2023-03-04T02:23:25.680Z,11.02
2023-03-04T02:28:43.301Z,11.25
2023-03-04T02:31:24.896Z,11.07
2023-03-04T02:33:53.833Z,10.40
2023-03-04T02:36:20.398Z,11.48
2023-03-04T02:38:46.838Z,12.85
2023-03-04T02:41:21.569Z,11.93
2023-03-04T02:43:51.813Z,9.93
2023-03-04T02:46:18.751Z,11.73
2023-03-04T02:48:45.501Z,10.32
2023-03-04T02:51:12.124Z,11.27
2023-03-04T02:53:38.584Z,10.23
2023-03-04T02:56:05.375Z,11.55
2023-03-04T02:58:32.155Z,10.63
2023-03-04T03:00:58.715Z,11.82
2023-03-04T03:03:25.455Z,9.82
2023-03-04T03:05:54.784Z,11.25
2023-03-04T03:08:21.824Z,9.82
2023-03-04T03:10:48.492Z,9.85
2023-03-04T03:13:19.199Z,9.80
2023-03-04T03:15:45.634Z,10.52
2023-03-04T03:18:12.565Z,10.88
2023-03-04T03:20:39.083Z,9.43
2023-03-04T03:23:05.525Z,8.82
2023-03-04T03:25:32.247Z,8.57
2023-03-04T03:27:58.817Z,8.68
2023-03-04T03:30:25.338Z,8.43
2023-03-04T03:32:51.749Z,9.60
2023-03-04T03:35:18.549Z,9.15
2023-03-04T03:37:45.055Z,8.55
2023-03-04T03:40:12.568Z,8.63
2023-03-04T03:42:38.986Z,8.13
2023-03-04T03:45:05.930Z,7.47
2023-03-04T03:47:32.564Z,8.25
2023-03-04T03:49:59.058Z,8.48
2023-03-04T03:52:25.852Z,8.73
2023-03-04T03:54:52.365Z,8.73
2023-03-04T03:57:18.861Z,7.88
2023-03-04T03:59:45.692Z,9.23
2023-03-04T04:02:12.195Z,6.85
2023-03-04T04:04:38.967Z,7.13
2023-03-04T04:07:05.331Z,7.30
2023-03-04T04:09:31.778Z,7.88
2023-03-04T04:11:58.799Z,6.90
2023-03-04T04:14:25.232Z,6.97
2023-03-04T04:16:51.664Z,7.10
2023-03-04T04:19:20.368Z,6.10
2023-03-04T04:21:47.049Z,6.82
2023-03-04T04:24:13.770Z,6.15
2023-03-04T04:26:41.540Z,6.78
2023-03-04T04:29:09.118Z,6.65
2023-03-04T04:31:35.814Z,7.40
2023-03-04T04:34:02.784Z,7.57
2023-03-04T04:36:29.230Z,6.35
2023-03-04T04:38:55.671Z,6.20
2023-03-04T04:41:24.875Z,6.97
2023-03-04T04:43:51.412Z,6.13
2023-03-04T04:46:18.583Z,6.43
2023-03-04T04:48:45.472Z,6.95
2023-03-04T04:51:12.552Z,6.03
2023-03-04T04:53:39.663Z,6.40
2023-03-04T04:56:11.532Z,7.13
2023-03-04T04:58:38.485Z,6.88
2023-03-04T05:01:05.226Z,5.57
2023-03-04T05:03:33.525Z,6.22
2023-03-04T05:06:00.181Z,6.60
2023-03-04T05:08:26.844Z,5.90
2023-03-04T05:10:53.776Z,6.53
2023-03-04T05:13:20.400Z,5.82
2023-03-04T05:15:47.491Z,5.60
2023-03-04T05:18:13.908Z,6.43
2023-03-04T05:20:44.183Z,6.20
2023-03-04T05:23:10.567Z,5.80
2023-03-04T05:25:37.042Z,5.82
2023-03-04T05:28:05.004Z,5.43
2023-03-04T05:30:31.444Z,5.80
2023-03-04T05:32:57.840Z,5.57
2023-03-04T05:35:24.271Z,5.72
2023-03-04T05:37:50.684Z,6.05
2023-03-04T05:40:17.215Z,5.57
2023-03-04T05:42:43.656Z,5.50
2023-03-04T05:45:10.693Z,6.28
2023-03-04T05:47:37.181Z,6.30
2023-03-04T05:50:03.803Z,5.50
2023-03-04T05:52:30.178Z,5.57
2023-03-04T05:54:56.579Z,6.68
2023-03-04T05:57:22.981Z,5.65
2023-03-04T05:59:52.074Z,5.50
2023-03-04T06:02:18.557Z,6.00
2023-03-04T06:04:45.945Z,5.68
2023-03-04T06:07:12.601Z,5.30
2023-03-04T06:09:39.491Z,5.63
2023-03-04T06:12:06.471Z,6.82
2023-03-04T06:14:33.225Z,5.80
2023-03-04T06:16:59.921Z,6.13
2023-03-04T06:19:26.619Z,6.00
2023-03-04T06:21:53.264Z,4.75
2023-03-04T06:24:21.265Z,5.65
2023-03-04T06:26:47.904Z,4.78
2023-03-04T06:29:14.698Z,4.53
2023-03-04T06:31:42.155Z,5.03
2023-03-04T06:34:09.650Z,5.18
2023-03-04T06:36:36.769Z,4.75
2023-03-04T06:39:06.010Z,4.80
2023-03-04T06:41:34.577Z,5.30
2023-03-04T06:44:01.005Z,4.70
2023-03-04T06:46:30.313Z,4.57
2023-03-04T06:48:57.261Z,5.13
2023-03-04T06:51:25.019Z,4.57
2023-03-04T06:53:51.458Z,5.75
2023-03-04T06:56:17.971Z,4.75
2023-03-04T06:58:45.760Z,4.45
2023-03-04T07:01:21.934Z,4.65
2023-03-04T07:03:49.948Z,4.63
2023-03-04T07:06:18.935Z,4.15
2023-03-04T07:08:46.309Z,4.15
2023-03-04T07:11:13.295Z,4.30
2023-03-04T07:13:40.294Z,3.55
2023-03-04T07:16:09.199Z,4.75
2023-03-04T07:18:36.409Z,3.70
2023-03-04T07:21:03.204Z,4.75
2023-03-04T07:23:29.848Z,4.78
2023-03-04T07:25:58.149Z,5.47
2023-03-04T07:28:26.345Z,4.50
2023-03-04T07:30:52.829Z,4.30
2023-03-04T07:33:19.434Z,4.60
2023-03-04T07:35:46.121Z,3.53
2023-03-04T07:38:13.066Z,3.90
2023-03-04T07:40:39.527Z,3.95
2023-03-04T07:43:05.961Z,4.10
2023-03-04T07:45:32.655Z,4.32
2023-03-04T07:47:59.180Z,5.30
2023-03-04T07:50:25.588Z,3.72
2023-03-04T07:52:52.107Z,3.67
2023-03-04T07:55:19.086Z,4.93
2023-03-04T07:57:47.496Z,3.42
2023-03-04T08:00:18.899Z,3.90
2023-03-04T08:02:45.645Z,3.70
2023-03-04T08:05:12.145Z,4.38
2023-03-04T08:07:38.544Z,4.50
2023-03-04T08:10:05.481Z,3.42
2023-03-04T08:12:32.215Z,4.38
2023-03-04T08:14:58.699Z,3.75
2023-03-04T08:17:25.114Z,3.78
2023-03-04T08:19:52.912Z,4.40
2023-03-04T08:22:19.283Z,4.30
2023-03-04T08:24:45.752Z,3.33
2023-03-04T08:27:14.305Z,3.38
2023-03-04T08:29:40.760Z,3.25
2023-03-04T08:32:07.289Z,2.72
2023-03-04T08:34:34.312Z,2.92
2023-03-04T08:37:00.722Z,3.53
2023-03-04T08:39:27.130Z,3.88
2023-03-04T08:41:53.601Z,2.67
2023-03-04T08:44:20.191Z,3.50
2023-03-04T08:46:46.717Z,3.05
2023-03-04T08:49:14.537Z,2.70
2023-03-04T08:51:41.540Z,2.90
2023-03-04T08:54:07.992Z,3.17
2023-03-04T08:56:34.562Z,2.85
2023-03-04T08:59:00.947Z,2.20
2023-03-04T09:01:27.506Z,2.88
2023-03-04T09:03:54.113Z,2.28
2023-03-04T09:06:28.613Z,2.30
2023-03-04T09:08:55.140Z,1.85
2023-03-04T09:11:21.707Z,2.58
2023-03-04T09:13:48.228Z,2.53
2023-03-04T09:16:15.134Z,2.08
2023-03-04T09:18:42.195Z,2.30
2023-03-04T09:21:09.051Z,1.73
2023-03-04T09:23:36.509Z,1.65
2023-03-04T09:26:24.021Z,1.80
2023-03-04T09:28:55.076Z,1.90
2023-03-04T09:31:22.801Z,2.10
2023-03-04T09:33:49.909Z,2.80
2023-03-04T09:36:16.840Z,2.03
2023-03-04T09:38:43.765Z,1.88
2023-03-04T09:41:21.274Z,1.70
2023-03-04T09:43:49.185Z,2.00
2023-03-04T09:46:34.430Z,2.15
2023-03-04T09:49:01.175Z,1.70
2023-03-04T09:51:56.936Z,1.80
2023-03-04T09:54:51.858Z,1.90
2023-03-04T09:57:31.844Z,2.38
2023-03-04T10:00:33.348Z,1.98
2023-03-04T10:03:25.444Z,1.73
2023-03-04T10:05:56.402Z,1.83
2023-03-04T10:08:40.842Z,1.95
2023-03-04T10:11:42.441Z,1.63
2023-03-04T10:14:21.128Z,1.63
2023-03-04T10:16:59.229Z,1.75
2023-03-04T10:19:54.375Z,1.67
2023-03-04T10:22:33.149Z,1.52
2023-03-04T10:25:15.666Z,1.85
2023-03-04T10:27:43.625Z,1.88
2023-03-04T10:30:30.366Z,1.58
2023-03-04T10:32:56.905Z,1.77
2023-03-04T10:35:31.305Z,2.30
2023-03-04T10:38:03.472Z,1.88
2023-03-04T10:40:38.144Z,2.50
2023-03-04T10:43:08.309Z,1.80
2023-03-04T10:45:40.251Z,2.03
2023-03-04T10:48:17.245Z,2.10
2023-03-04T10:50:43.739Z,1.40
2023-03-04T10:53:25.492Z,1.35
2023-03-04T10:55:52.294Z,1.70
2023-03-04T10:58:19.555Z,1.63
2023-03-04T11:01:01.446Z,1.58
2023-03-04T11:03:29.625Z,1.40
2023-03-04T11:06:13.088Z,1.63
2023-03-04T11:08:42.455Z,1.50
2023-03-04T11:11:23.560Z,3.80
2023-03-04T11:13:58.528Z,2.10
2023-03-04T11:16:27.956Z,1.40
2023-03-04T11:18:59.894Z,2.00
2023-03-04T11:21:30.254Z,1.45
2023-03-04T11:24:00.383Z,1.40
2023-03-04T11:26:36.628Z,1.77
2023-03-04T11:29:21.530Z,1.67
2023-03-04T11:32:13.266Z,1.42
2023-03-04T11:34:58.833Z,1.58
2023-03-04T11:37:49.801Z,1.33
2023-03-04T11:40:45.752Z,2.08
2023-03-04T11:43:21.800Z,1.60
2023-03-04T11:46:08.914Z,2.08
2023-03-04T11:48:35.404Z,2.85
2023-03-04T11:51:13.026Z,1.55
2023-03-04T11:54:03.753Z,2.05
2023-03-04T11:56:37.938Z,3.13
2023-03-04T11:59:29.153Z,1.70
2023-03-04T12:02:15.018Z,2.38
2023-03-04T12:04:58.887Z,2.20
2023-03-04T12:07:53.971Z,2.10
2023-03-04T12:10:36.872Z,2.35
2023-03-04T12:13:21.778Z,2.25
2023-03-04T12:16:16.347Z,2.20
2023-03-04T12:19:17.261Z,2.47
2023-03-04T12:21:59.883Z,1.90
2023-03-04T12:24:44.947Z,2.13
2023-03-04T12:27:27.827Z,2.03
2023-03-04T12:30:05.689Z,1.58
2023-03-04T12:32:44.679Z,2.10
2023-03-04T12:35:28.718Z,2.60
2023-03-04T12:40:47.566Z,1.77
2023-03-04T12:43:45.831Z,1.95
2023-03-04T12:46:36.148Z,1.92
2023-03-04T12:49:18.692Z,1.65
2023-03-04T12:51:56.832Z,1.80
2023-03-04T12:54:34.677Z,1.83
2023-03-04T12:57:14.497Z,2.15
2023-03-04T12:59:50.166Z,1.95
2023-03-04T13:02:54.104Z,2.20
2023-03-04T13:05:29.876Z,1.70
2023-03-04T13:08:52.766Z,1.92
2023-03-04T13:11:31.361Z,1.75
2023-03-04T13:14:17.689Z,3.88
2023-03-04T13:16:49.262Z,1.80
2023-03-04T13:19:48.286Z,2.30
2023-03-04T13:22:34.037Z,1.90
2023-03-04T13:25:20.695Z,1.30
2023-03-04T13:27:50.508Z,1.38
2023-03-04T13:30:32.175Z,1.15
2023-03-04T13:33:38.786Z,1.40
2023-03-04T13:36:25.638Z,1.33
2023-03-04T13:39:21.796Z,1.08
2023-03-04T13:41:56.719Z,0.95
2023-03-04T13:44:33.648Z,1.08
2023-03-04T13:47:14.305Z,1.85
2023-03-04T13:49:40.855Z,1.23
2023-03-04T13:52:41.362Z,1.20
2023-03-04T13:55:39.890Z,1.20
2023-03-04T13:58:26.046Z,1.30
2023-03-04T14:00:54.902Z,1.00
2023-03-04T14:03:24.711Z,1.25
2023-03-04T14:06:10.952Z,1.33
2023-03-04T14:08:37.423Z,1.00
2023-03-04T14:11:03.864Z,1.20
2023-03-04T14:13:30.389Z,1.20
2023-03-04T14:15:58.956Z,1.02
2023-03-04T14:18:25.914Z,2.13
2023-03-04T14:20:58.812Z,1.15
2023-03-04T14:23:32.043Z,1.20
2023-03-04T14:26:14.166Z,1.05
2023-03-04T14:28:49.280Z,1.00
2023-03-04T14:31:24.545Z,0.75
2023-03-04T14:33:59.867Z,0.98
2023-03-04T14:36:26.916Z,1.00
2023-03-04T14:39:00.225Z,1.10
2023-03-04T14:41:33.802Z,1.20
2023-03-04T14:44:12.430Z,1.35
2023-03-04T14:47:06.605Z,1.27
2023-03-04T14:49:36.426Z,1.75
2023-03-04T14:52:03.224Z,1.50
2023-03-04T14:54:40.372Z,1.55
2023-03-04T14:57:21.078Z,1.50
2023-03-04T14:59:47.803Z,1.67
2023-03-04T15:02:23.220Z,1.73
2023-03-04T15:04:51.831Z,1.20
2023-03-04T15:07:28.665Z,1.67
2023-03-04T15:09:55.908Z,1.58
2023-03-04T15:12:28.586Z,1.50
2023-03-04T15:15:00.359Z,1.50
2023-03-04T15:17:38.894Z,1.30
2023-03-04T15:20:10.596Z,1.40
2023-03-04T15:22:49.879Z,1.38
2023-03-04T15:25:20.324Z,1.50
2023-03-04T15:27:48.920Z,1.90
2023-03-04T15:30:24.789Z,1.98
2023-03-04T15:32:51.588Z,1.90
2023-03-04T15:35:19.503Z,1.98
2023-03-04T15:37:47.994Z,2.10
2023-03-04T15:40:27.107Z,2.30
2023-03-04T15:42:55.279Z,1.45
2023-03-04T15:45:25.213Z,1.98
2023-03-04T15:47:51.876Z,1.50
2023-03-04T15:50:20.009Z,1.88
2023-03-04T15:52:48.232Z,1.60
2023-03-04T15:55:19.331Z,1.80
2023-03-04T15:57:48.865Z,2.17
2023-03-04T16:00:16.290Z,1.80
2023-03-04T16:02:43.304Z,2.00
2023-03-04T16:05:10.451Z,1.98
2023-03-04T16:07:38.372Z,2.17
2023-03-04T16:10:18.620Z,1.67
2023-03-04T16:12:45.348Z,1.95
2023-03-04T16:15:21.359Z,2.25
2023-03-04T16:17:48.845Z,2.40
2023-03-04T16:20:18.270Z,1.90
2023-03-04T16:22:46.975Z,2.20
2023-03-04T16:25:15.613Z,1.80
2023-03-04T16:27:42.776Z,1.80
2023-03-04T16:30:15.158Z,1.70
2023-03-04T16:32:41.598Z,2.13
2023-03-04T16:35:08.830Z,2.00
2023-03-04T16:37:35.291Z,2.70
2023-03-04T16:40:02.377Z,2.03
2023-03-04T16:42:28.798Z,2.15
2023-03-04T16:44:55.316Z,2.72
2023-03-04T16:47:21.849Z,3.15
2023-03-04T16:49:50.031Z,2.47
2023-03-04T16:52:49.503Z,2.38
2023-03-04T16:55:20.753Z,2.53
2023-03-04T16:57:48.086Z,3.03
2023-03-04T17:00:17.503Z,3.00
2023-03-04T17:02:45.046Z,3.50
2023-03-04T17:05:21.329Z,2.97
2023-03-04T17:07:47.890Z,2.90
2023-03-04T17:10:15.837Z,2.20
2023-03-04T17:15:13.580Z,3.38
2023-03-04T17:17:41.949Z,3.35
2023-03-04T17:20:10.189Z,3.25
2023-03-04T17:22:36.888Z,3.70
2023-03-04T17:25:04.106Z,3.40
2023-03-04T17:27:30.782Z,3.42
2023-03-04T17:29:57.325Z,3.75
2023-03-04T17:32:26.248Z,3.20
2023-03-04T17:34:57.590Z,2.90
2023-03-04T17:37:24.314Z,2.72
2023-03-04T17:39:50.830Z,3.00
2023-03-04T17:42:18.828Z,3.22
2023-03-04T17:44:45.902Z,3.05
2023-03-04T17:47:13.031Z,2.40
2023-03-04T17:49:39.847Z,3.95
2023-03-04T17:52:06.511Z,2.78
2023-03-04T17:54:32.976Z,3.20
2023-03-04T17:56:59.530Z,3.15
2023-03-04T17:59:25.957Z,2.95
2023-03-04T18:01:54.298Z,3.10
2023-03-04T18:04:21.357Z,3.22
2023-03-04T18:06:47.924Z,3.40
2023-03-04T18:09:14.505Z,2.67
2023-03-04T18:11:42.442Z,2.78
2023-03-04T18:14:12.235Z,3.10
2023-03-04T18:16:39.337Z,2.53
2023-03-04T18:19:06.161Z,2.88
2023-03-04T18:21:33.141Z,3.30
2023-03-04T18:23:59.583Z,2.58
2023-03-04T18:26:27.189Z,2.58
2023-03-04T18:28:55.625Z,2.03
2023-03-04T18:31:24.670Z,2.35
2023-03-04T18:33:51.847Z,5.53
2023-03-04T18:36:18.554Z,2.80
2023-03-04T18:38:45.014Z,2.13
2023-03-04T18:41:15.029Z,2.25
2023-03-04T18:43:42.055Z,2.60
2023-03-04T18:46:29.918Z,2.20
2023-03-04T18:49:01.500Z,2.75
2023-03-04T18:51:27.909Z,2.85
2023-03-04T18:53:54.516Z,2.03
2023-03-04T18:59:15.580Z,1.80
2023-03-04T19:01:42.152Z,1.65
2023-03-04T19:04:09.396Z,2.15
2023-03-04T19:06:36.051Z,2.38
2023-03-04T19:09:02.615Z,2.30
2023-03-04T19:11:31.452Z,2.90
2023-03-04T19:13:58.343Z,2.97
2023-03-04T19:16:25.224Z,1.92
2023-03-04T19:18:52.328Z,1.90
2023-03-04T19:21:19.480Z,2.08
2023-03-04T19:23:49.258Z,2.17
2023-03-04T19:26:15.770Z,2.38
2023-03-04T19:28:42.749Z,1.77
2023-03-04T19:33:52.236Z,2.07
2023-03-04T19:36:18.972Z,2.50
2023-03-04T19:38:45.561Z,1.67
2023-03-04T19:41:16.851Z,2.38
2023-03-04T19:43:45.950Z,2.53
2023-03-04T19:46:13.110Z,2.25
2023-03-04T19:48:40.922Z,2.15
2023-03-04T19:51:19.319Z,1.92
2023-03-04T19:53:46.007Z,2.15
2023-03-04T19:56:12.685Z,2.60
2023-03-04T19:58:39.262Z,2.47
2023-03-04T20:01:06.282Z,1.80
2023-03-04T20:03:32.861Z,2.00
2023-03-04T20:06:07.551Z,1.88
2023-03-04T20:08:38.396Z,2.53
2023-03-04T20:11:12.851Z,2.33
2023-03-04T20:13:39.285Z,2.53
2023-03-04T20:16:13.044Z,2.50
2023-03-04T20:18:39.870Z,2.35
2023-03-04T20:21:07.336Z,2.03
2023-03-04T20:23:36.028Z,2.45
2023-03-04T20:26:03.832Z,2.35
2023-03-04T20:28:30.837Z,2.30
2023-03-04T20:31:31.620Z,2.22
2023-03-04T20:33:59.739Z,2.20
2023-03-04T20:36:29.927Z,2.70
2023-03-04T20:39:02.406Z,5.60
2023-03-04T20:41:35.854Z,2.50
2023-03-04T20:44:02.295Z,2.30
2023-03-04T20:46:41.041Z,2.17
2023-03-04T20:49:33.751Z,2.38
2023-03-04T20:52:07.979Z,2.95
2023-03-04T20:54:38.489Z,2.58
2023-03-04T20:57:08.065Z,2.42
2023-03-04T20:59:35.823Z,2.65
2023-03-04T21:02:02.802Z,2.05
2023-03-04T21:04:30.781Z,2.65
2023-03-04T21:06:58.399Z,2.78
2023-03-04T21:09:25.052Z,2.50
2023-03-04T21:11:51.625Z,2.47
2023-03-04T21:14:22.079Z,2.65
2023-03-04T21:16:51.166Z,2.92
2023-03-04T21:19:27.372Z,2.50
2023-03-04T21:21:55.581Z,2.42
2023-03-04T21:24:25.000Z,2.38
2023-03-04T21:26:51.709Z,2.28
2023-03-04T21:29:20.776Z,2.78
2023-03-04T21:31:51.653Z,2.47
2023-03-04T21:34:24.456Z,2.53
2023-03-04T21:36:51.029Z,2.63
2023-03-04T21:39:23.040Z,2.55
2023-03-04T21:41:50.056Z,2.40
2023-03-04T21:44:27.916Z,2.75
2023-03-04T21:46:58.619Z,2.63
2023-03-04T21:49:26.185Z,1.88
2023-03-04T21:51:52.620Z,2.65
2023-03-04T21:54:19.269Z,2.63
2023-03-04T21:56:46.992Z,3.10
2023-03-04T21:59:14.641Z,2.60
2023-03-04T22:01:42.060Z,3.33
2023-03-04T22:04:09.575Z,2.80
2023-03-04T22:06:36.117Z,2.05
2023-03-04T22:09:04.661Z,2.85
2023-03-04T22:11:31.485Z,2.83
2023-03-04T22:14:00.113Z,3.30
2023-03-04T22:16:27.810Z,2.58
2023-03-04T22:18:54.458Z,2.78
2023-03-04T22:21:21.820Z,3.28
2023-03-04T22:23:51.555Z,3.20
2023-03-04T22:26:21.664Z,2.70
2023-03-04T22:28:48.524Z,2.88
2023-03-04T22:31:20.674Z,2.78
2023-03-04T22:33:48.018Z,2.10
2023-03-04T22:36:14.751Z,1.70
2023-03-04T22:38:41.438Z,1.83
2023-03-04T22:41:15.756Z,1.55
2023-03-04T22:43:43.168Z,2.10
2023-03-04T22:46:21.125Z,2.30
2023-03-04T22:48:49.007Z,2.10
2023-03-04T22:51:15.874Z,2.00
2023-03-04T22:53:43.525Z,1.75
2023-03-04T22:56:11.251Z,2.03
2023-03-04T22:58:37.798Z,2.70
2023-03-04T23:01:05.407Z,2.47
2023-03-04T23:03:32.120Z,2.13
2023-03-04T23:06:11.715Z,1.90
2023-03-04T23:08:40.970Z,1.98
2023-03-04T23:11:13.185Z,1.80
2023-03-04T23:13:40.565Z,1.90
2023-03-04T23:16:09.766Z,1.92
2023-03-04T23:18:38.336Z,1.60
2023-03-04T23:21:15.232Z,2.00
2023-03-04T23:23:42.049Z,1.50
2023-03-04T23:26:17.072Z,1.63
2023-03-04T23:28:44.217Z,1.73
2023-03-04T23:31:14.860Z,1.88
2023-03-04T23:33:46.552Z,2.30
2023-03-04T23:36:17.167Z,1.70
2023-03-04T23:38:45.226Z,1.50
2023-03-04T23:41:17.905Z,1.63
2023-03-04T23:43:44.725Z,2.10
2023-03-04T23:46:11.713Z,2.17
2023-03-04T23:48:39.910Z,1.60
2023-03-04T23:51:11.463Z,1.75
2023-03-04T23:53:39.130Z,1.17
2023-03-04T23:56:10.423Z,1.58
2023-03-04T23:58:37.366Z,1.60
